Arcadia, Nebraska
Current Conditions -  °F | °C
As of 10:53 AM on Friday 31 Oct 2014 (Local Time) from KODX Reporting Station
Clear Clear  
Wind Chill: 26°   Ceiling: Unl
Heat Index: 32°   Visibility: 10mi
Dew Point: 20°   Wind: 6mph
Humidity: 61%   Direction: 60°ENE
Pressure: 30.56"   Gusts: NA
Location:  41.42°N, 99.13°W
Report Text: KODX 311553Z AUTO 06005KT 10SM CLR 00/M07 A3056 RMK AO2 SLP374 T00001067
Loading
Personal Weather Stations






























Interactive Weather Map New forecast layout! Learn more

10-Day Weather Forecast

Advertisements
Track Severe Weather on mobile